Time;durP1;ratioP1;P1;durP2;ratioP2;P2;SDS_P1;SDS_P2;PMS_P1;PMS_P2;Temp;Humidity;BMP_temperature;BMP_pressure;BME280_temperature;BME280_humidity;BME280_pressure;Samples;Min_cycle;Max_cycle;Signal;HPM_P1;HPM_P2
2022/08/12 00:44:42;;;;;;;7.47;3.60;;;18.90;99.90;;;;;;5088743;28;20082;-76
2022/08/12 00:47:10;;;;;;;8.13;3.30;;;18.90;99.90;;;;;;5068699;28;20109;-77
2022/08/12 00:49:36;;;;;;;7.20;3.78;;;18.90;99.90;;;;;;5039172;28;20475;-76
2022/08/12 00:52:08;;;;;;;7.13;4.50;;;18.90;99.90;;;;;;5055831;28;20047;-76
2022/08/12 00:54:34;;;;;;;;;;;18.90;99.90;;;;;;5056426;28;20075;-77
2022/08/12 00:57:12;;;;;;;7.38;3.30;;;18.80;99.90;;;;;;5056106;28;19979;-77
2022/08/12 00:59:54;;;;;;;8.23;3.65;;;18.80;99.90;;;;;;5055432;28;20052;-76
2022/08/12 01:02:27;;;;;;;;;;;18.80;99.90;;;;;;5055888;28;20050;-77
2022/08/12 01:13:17;;;;;;;4.65;3.45;;;18.60;99.90;;;;;;5055493;28;20125;-76
2022/08/12 01:15:45;;;;;;;5.72;3.50;;;18.60;99.90;;;;;;5055454;28;20044;-77
2022/08/12 01:18:15;;;;;;;7.78;3.80;;;18.50;99.90;;;;;;5055479;28;20052;-77
2022/08/12 01:21:02;;;;;;;7.38;3.13;;;18.50;99.90;;;;;;5073056;28;20046;-77
2022/08/12 01:23:37;;;;;;;6.03;3.60;;;18.50;99.90;;;;;;5038894;28;20479;-77
2022/08/12 01:26:06;;;;;;;7.93;4.18;;;18.40;99.90;;;;;;5073309;28;20502;-77
2022/08/12 01:28:34;;;;;;;5.72;3.63;;;18.40;99.90;;;;;;5055509;28;20044;-76
2022/08/12 01:31:05;;;;;;;4.75;3.50;;;18.30;99.90;;;;;;5055290;28;20045;-77
2022/08/12 01:33:45;;;;;;;6.70;3.70;;;18.30;99.90;;;;;;5055471;28;20502;-77
2022/08/12 01:36:13;;;;;;;6.10;3.75;;;18.30;99.90;;;;;;5055093;28;20045;-76
2022/08/12 01:38:42;;;;;;;6.65;4.07;;;18.20;99.90;;;;;;5055031;28;20045;-77
2022/08/12 01:41:10;;;;;;;6.45;4.32;;;18.20;99.90;;;;;;5038059;28;20033;-77
2022/08/12 01:43:37;;;;;;;4.80;4.15;;;18.20;99.90;;;;;;5054897;28;20041;-77
2022/08/12 01:46:29;;;;;;;5.72;3.85;;;18.10;99.90;;;;;;5054816;28;20036;-76
2022/08/12 01:48:55;;;;;;;5.97;3.67;;;18.10;99.90;;;;;;5024959;28;20064;-77
2022/08/12 01:51:20;;;;;;;6.28;4.35;;;18.10;99.90;;;;;;5054366;28;20145;-77
2022/08/12 01:54:03;;;;;;;7.15;4.30;;;18.00;99.90;;;;;;5054877;28;20067;-77
2022/08/12 01:56:40;;;;;;;6.47;3.83;;;18.00;99.90;;;;;;5054924;28;20561;-77
2022/08/12 02:01:57;;;;;;;7.60;4.30;;;17.90;99.90;;;;;;5054686;28;20103;-77
2022/08/12 02:13:56;;;;;;;5.15;4.07;;;17.80;99.90;;;;;;5054382;28;20095;-77
2022/08/12 02:16:44;;;;;;;5.57;3.90;;;17.70;99.90;;;;;;5072410;28;20040;-77
2022/08/12 02:19:41;;;;;;;5.82;4.13;;;17.80;99.90;;;;;;5054508;28;20058;-77
2022/08/12 02:22:37;;;;;;;5.07;3.97;;;17.70;99.90;;;;;;5054247;28;20062;-77
2022/08/12 02:25:06;;;;;;;4.15;3.53;;;17.70;99.90;;;;;;5054264;28;20493;-77
2022/08/12 02:27:36;;;;;;;9.60;3.80;;;17.70;99.90;;;;;;5072084;28;20754;-77
2022/08/12 02:30:09;;;;;;;7.30;4.05;;;17.60;99.90;;;;;;5053973;28;20535;-77
2022/08/12 02:32:39;;;;;;;10.73;3.92;;;17.60;99.90;;;;;;5054199;28;20040;-77
2022/08/12 02:35:20;;;;;;;10.82;4.57;;;17.60;99.90;;;;;;5054033;28;20075;-77
2022/08/12 02:37:48;;;;;;;6.80;4.03;;;17.60;99.90;;;;;;5053882;28;20048;-77
2022/08/12 02:40:16;;;;;;;6.15;4.60;;;17.50;99.90;;;;;;5053375;28;20474;-77
2022/08/12 02:43:13;;;;;;;6.55;4.07;;;17.50;99.90;;;;;;5054010;28;20111;-77
2022/08/12 02:45:54;;;;;;;5.57;4.53;;;17.50;99.90;;;;;;5053930;28;20091;-77
2022/08/12 02:48:29;;;;;;;6.13;4.30;;;17.40;99.90;;;;;;5054260;28;20044;-77
2022/08/12 02:51:00;;;;;;;7.72;4.18;;;17.40;99.90;;;;;;5053784;28;20040;-76
2022/08/12 02:53:26;;;;;;;7.18;4.70;;;17.40;99.90;;;;;;5054038;28;20068;-76
2022/08/12 02:55:52;;;;;;;6.28;4.32;;;17.40;99.90;;;;;;5053728;28;20127;-77
2022/08/12 02:58:18;;;;;;;9.43;4.65;;;17.40;99.90;;;;;;5037407;28;20203;-77
2022/08/12 03:00:45;;;;;;;6.30;4.80;;;17.30;99.90;;;;;;5053512;28;20067;-77
2022/08/12 03:03:13;;;;;;;7.28;4.53;;;17.30;99.90;;;;;;5053615;28;20048;-77
2022/08/12 03:06:20;;;;;;;9.90;4.70;;;17.30;99.90;;;;;;5053408;28;20084;-77
2022/08/12 03:08:47;;;;;;;5.65;4.15;;;17.30;99.90;;;;;;5053931;28;20418;-76
2022/08/12 03:11:13;;;;;;;14.43;5.90;;;17.20;99.90;;;;;;5053264;28;20087;-76
2022/08/12 03:13:44;;;;;;;7.15;4.95;;;17.20;99.90;;;;;;5053556;28;20075;-77
2022/08/12 03:16:10;;;;;;;7.90;4.93;;;17.10;99.90;;;;;;5053456;28;20032;-77
2022/08/12 03:18:37;;;;;;;8.57;4.95;;;17.00;99.90;;;;;;5053412;28;20278;-77
2022/08/12 03:21:03;;;;;;;7.82;4.78;;;17.00;99.90;;;;;;5053021;28;20037;-77
2022/08/12 03:23:29;;;;;;;4.93;4.38;;;17.00;99.90;;;;;;5053280;28;20051;-77
2022/08/12 03:25:57;;;;;;;8.27;5.57;;;16.90;99.90;;;;;;5053210;28;20040;-77
2022/08/12 03:31:09;;;;;;;6.80;4.53;;;16.90;99.90;;;;;;5052720;28;20098;-76
2022/08/12 03:33:37;;;;;;;7.05;5.13;;;16.80;99.90;;;;;;5053004;28;20143;-77
2022/08/12 03:36:06;;;;;;;9.52;5.40;;;16.70;99.90;;;;;;5053034;28;20045;-76
2022/08/12 03:38:36;;;;;;;5.32;4.80;;;16.60;99.90;;;;;;5052819;28;20044;-75
2022/08/12 04:00:45;;;;;;;8.40;5.32;;;16.50;99.90;;;;;;5063007;28;20070;-73
2022/08/12 04:05:55;;;;;;;10.45;5.25;;;16.40;99.90;;;;;;5064369;28;20121;-79
2022/08/12 04:08:24;;;;;;;8.13;5.82;;;16.40;99.90;;;;;;5056968;28;20495;-78
2022/08/12 04:13:33;;;;;;;7.57;5.72;;;16.40;99.90;;;;;;5057269;28;20143;-79
2022/08/12 04:16:01;;;;;;;10.02;6.43;;;16.50;99.90;;;;;;5040648;28;20075;-78
2022/08/12 04:18:28;;;;;;;11.70;6.15;;;16.40;99.90;;;;;;5056976;28;20119;-78
2022/08/12 04:20:54;;;;;;;10.23;6.35;;;16.40;99.90;;;;;;5056980;28;20040;-79
2022/08/12 04:23:24;;;;;;;8.20;6.00;;;16.30;99.90;;;;;;5060091;28;20062;-79
2022/08/12 04:25:50;;;;;;;9.90;6.70;;;16.30;99.90;;;;;;5061211;28;20063;-78
2022/08/12 04:28:24;;;;;;;12.73;5.82;;;16.30;99.90;;;;;;5060683;28;20447;-79
2022/08/12 04:30:50;;;;;;;10.02;6.55;;;16.40;99.90;;;;;;5060345;28;20060;-79
2022/08/12 04:33:18;;;;;;;8.93;6.30;;;16.30;99.90;;;;;;5043729;28;20043;-79
2022/08/12 04:35:44;;;;;;;8.18;5.80;;;16.30;99.90;;;;;;5060511;28;20055;-77
2022/08/12 04:38:10;;;;;;;11.88;6.30;;;16.30;99.90;;;;;;5044584;28;20099;-77
2022/08/12 04:40:36;;;;;;;8.45;5.35;;;16.30;99.90;;;;;;5043484;28;20079;-78
2022/08/12 04:43:01;;;;;;;10.40;5.68;;;16.30;99.90;;;;;;5059946;28;20436;-79
2022/08/12 04:45:28;;;;;;;10.75;5.80;;;16.30;99.90;;;;;;5059649;28;20044;-79
2022/08/12 04:47:55;;;;;;;8.80;6.22;;;16.30;99.90;;;;;;5059592;28;20067;-79
2022/08/12 04:50:21;;;;;;;8.38;5.50;;;16.30;99.90;;;;;;5059188;28;20403;-79
2022/08/12 04:52:48;;;;;;;8.75;6.15;;;16.30;99.90;;;;;;5059524;28;20040;-79
2022/08/12 04:55:15;;;;;;;11.73;6.32;;;16.30;99.90;;;;;;5060008;28;20566;-79
2022/08/12 04:57:41;;;;;;;10.43;6.07;;;16.30;99.90;;;;;;5059484;28;20438;-79
2022/08/12 05:00:10;;;;;;;9.18;6.70;;;16.40;99.90;;;;;;5058904;28;20048;-79
2022/08/12 05:02:36;;;;;;;11.10;5.93;;;16.50;99.90;;;;;;5059535;28;20044;-79
2022/08/12 05:05:02;;;;;;;8.65;5.55;;;16.50;99.90;;;;;;5058762;28;20079;-78
2022/08/12 05:07:28;;;;;;;8.85;5.90;;;16.60;99.90;;;;;;5059395;28;20044;-78
2022/08/12 05:09:54;;;;;;;8.05;5.65;;;16.80;99.90;;;;;;5058881;28;20040;-79
2022/08/12 05:12:19;;;;;;;13.40;5.85;;;17.10;99.90;;;;;;5058919;28;20553;-79
2022/08/12 05:14:45;;;;;;;9.93;5.75;;;17.50;99.90;;;;;;5059447;28;20044;-79
2022/08/12 05:17:11;;;;;;;11.07;5.55;;;17.90;99.90;;;;;;5076470;28;20070;-79
2022/08/12 05:19:37;;;;;;;9.77;5.60;;;18.30;99.90;;;;;;5059116;28;20044;-78
2022/08/12 05:22:02;;;;;;;6.40;5.13;;;18.70;99.90;;;;;;5058413;28;20047;-78
2022/08/12 05:24:28;;;;;;;9.80;5.57;;;19.00;99.90;;;;;;5057982;28;20113;-79
2022/08/12 05:26:54;;;;;;;8.82;4.82;;;19.20;99.90;;;;;;5076288;28;20040;-80
2022/08/12 05:29:20;;;;;;;7.88;5.38;;;19.50;99.90;;;;;;5058111;28;20052;-80
2022/08/12 05:31:48;;;;;;;8.25;4.70;;;19.60;99.90;;;;;;5057294;28;20036;-79
2022/08/12 05:34:14;;;;;;;9.98;5.30;;;19.50;99.90;;;;;;5057411;28;20051;-79
2022/08/12 05:36:43;;;;;;;6.72;4.95;;;19.70;99.90;;;;;;5057785;28;20044;-79
2022/08/12 05:39:09;;;;;;;9.35;4.82;;;19.90;99.90;;;;;;5058287;28;20076;-78
2022/08/12 05:41:36;;;;;;;9.25;4.50;;;20.00;99.90;;;;;;5057754;28;20079;-79
2022/08/12 05:44:05;;;;;;;8.45;5.25;;;20.20;99.90;;;;;;5057480;28;20040;-79
2022/08/12 05:46:32;;;;;;;7.18;4.90;;;20.50;99.90;;;;;;5056137;28;20048;-80
2022/08/12 05:48:59;;;;;;;7.18;4.15;;;20.90;99.90;;;;;;5057588;28;20487;-79
2022/08/12 05:51:27;;;;;;;8.80;5.07;;;21.20;99.90;;;;;;5057321;28;20575;-80
2022/08/12 05:53:55;;;;;;;8.50;4.43;;;21.20;99.90;;;;;;5057287;28;20044;-79
2022/08/12 05:56:33;;;;;;;6.82;4.65;;;21.30;99.90;;;;;;5057442;28;20445;-80
2022/08/12 05:59:01;;;;;;;7.03;4.88;;;21.10;99.90;;;;;;5056634;28;20040;-79
2022/08/12 06:01:28;;;;;;;6.95;4.47;;;20.80;99.90;;;;;;5057661;28;20474;-77
2022/08/12 06:03:55;;;;;;;6.40;4.45;;;20.40;99.90;;;;;;5056536;28;20055;-78
2022/08/12 06:06:22;;;;;;;5.57;4.13;;;20.20;99.90;;;;;;5040283;28;20182;-79
2022/08/12 06:08:52;;;;;;;7.35;4.90;;;19.90;99.90;;;;;;5055937;28;20043;-79
2022/08/12 06:11:24;;;;;;;7.85;4.95;;;19.80;99.90;;;;;;5056982;28;20061;-77
2022/08/12 06:13:51;;;;;;;6.53;4.18;;;19.90;99.90;;;;;;5041799;28;20045;-77
2022/08/12 06:16:19;;;;;;;9.43;5.30;;;20.10;99.90;;;;;;5057975;28;20040;-79
2022/08/12 06:18:45;;;;;;;8.68;4.72;;;20.60;99.90;;;;;;5057275;28;20429;-79
2022/08/12 06:21:14;;;;;;;9.82;4.45;;;21.10;99.90;;;;;;5056898;28;20048;-79
2022/08/12 06:23:41;;;;;;;7.72;4.05;;;21.50;99.90;;;;;;5056551;28;20063;-78
2022/08/12 06:26:10;;;;;;;7.78;4.03;;;21.30;99.90;;;;;;5057420;28;20056;-79
2022/08/12 06:28:37;;;;;;;8.68;4.18;;;21.10;99.90;;;;;;5056814;28;20047;-79
2022/08/12 06:31:02;;;;;;;8.65;4.55;;;21.00;99.90;;;;;;5056922;28;20118;-80
2022/08/12 06:33:28;;;;;;;6.68;3.90;;;20.90;99.90;;;;;;5056972;28;20316;-79
2022/08/12 06:35:54;;;;;;;11.93;4.28;;;21.10;99.90;;;;;;5057348;28;20044;-80
2022/08/12 06:38:23;;;;;;;7.82;3.80;;;21.30;99.90;;;;;;5055943;28;20036;-80
2022/08/12 06:43:42;;;;;;;4.35;3.85;;;22.50;99.90;;;;;;5056404;28;20048;-78
2022/08/12 06:46:09;;;;;;;5.43;3.45;;;23.00;99.90;;;;;;5054719;28;20048;-80
2022/08/12 06:48:36;;;;;;;7.88;3.67;;;23.50;99.90;;;;;;5054564;28;20075;-80
2022/08/12 06:51:02;;;;;;;6.07;3.97;;;23.80;99.90;;;;;;5055265;28;20101;-80
2022/08/12 06:53:32;;;;;;;8.70;3.40;;;24.10;99.90;;;;;;5056446;28;20128;-80
2022/08/12 06:55:59;;;;;;;18.08;3.83;;;24.40;99.90;;;;;;5054980;28;20127;-80
2022/08/12 06:58:29;;;;;;;7.82;3.20;;;24.50;99.90;;;;;;5055208;28;20052;-79
2022/08/12 07:00:56;;;;;;;7.10;3.47;;;24.50;99.90;;;;;;5055271;28;20029;-80
2022/08/12 07:03:27;;;;;;;3.75;2.55;;;24.20;99.90;;;;;;5054424;28;20048;-80
2022/08/12 07:06:05;;;;;;;5.75;2.83;;;23.90;99.90;;;;;;5055816;28;20044;-80
2022/08/12 07:08:32;;;;;;;5.63;3.28;;;23.60;99.90;;;;;;5056740;28;20123;-80
2022/08/12 07:11:01;;;;;;;7.03;2.92;;;23.50;99.90;;;;;;5054342;28;20044;-80
2022/08/12 07:13:34;;;;;;;6.72;2.88;;;23.50;99.90;;;;;;5056539;28;20041;-79
2022/08/12 07:16:01;;;;;;;6.07;2.53;;;23.40;99.90;;;;;;5055514;28;20048;-79
2022/08/12 07:18:29;;;;;;;7.00;3.40;;;23.40;99.90;;;;;;5056520;28;20063;-80
2022/08/12 07:20:56;;;;;;;5.75;2.70;;;23.40;99.90;;;;;;5055160;28;20142;-80
2022/08/12 07:23:23;;;;;;;5.82;2.63;;;23.30;99.90;;;;;;5054328;28;20048;-80
2022/08/12 07:25:49;;;;;;;5.43;2.90;;;23.40;99.90;;;;;;5054370;28;20076;-80
2022/08/12 07:28:16;;;;;;;4.05;2.78;;;23.80;99.90;;;;;;5038912;28;20079;-79
2022/08/12 07:30:43;;;;;;;4.72;3.25;;;24.40;99.90;;;;;;5056450;28;20514;-80
2022/08/12 07:33:11;;;;;;;4.65;2.70;;;25.10;99.90;;;;;;5055981;28;20043;-80
2022/08/12 07:35:44;;;;;;;4.78;2.60;;;25.60;99.90;;;;;;5055789;28;20056;-78
2022/08/12 07:38:29;;;;;;;4.32;2.35;;;26.00;99.90;;;;;;5056577;28;20121;-80
2022/08/12 07:41:06;;;;;;;4.95;2.80;;;26.50;99.50;;;;;;5055947;28;20403;-79
2022/08/12 07:43:35;;;;;;;4.05;2.90;;;26.80;99.90;;;;;;5056417;28;20174;-80
2022/08/12 07:46:04;;;;;;;6.57;2.90;;;27.00;97.40;;;;;;5055757;28;20096;-79
2022/08/12 07:48:45;;;;;;;6.07;2.85;;;27.20;95.80;;;;;;5056335;28;20406;-79
2022/08/12 07:51:11;;;;;;;6.60;2.97;;;27.20;91.70;;;;;;5055508;28;20044;-80
2022/08/12 07:53:38;;;;;;;2.65;2.15;;;27.30;94.00;;;;;;5054809;28;20923;-77
2022/08/12 07:56:05;;;;;;;9.77;3.05;;;27.50;93.50;;;;;;5053185;28;20080;-77
2022/08/12 07:58:31;;;;;;;5.97;2.45;;;27.80;92.10;;;;;;5040655;28;20047;-78
2022/08/12 08:00:59;;;;;;;5.18;2.22;;;27.80;92.60;;;;;;5039805;28;20076;-78
2022/08/12 08:03:26;;;;;;;6.03;2.35;;;28.10;92.10;;;;;;5074972;28;20044;-78
2022/08/12 08:05:52;;;;;;;5.72;2.70;;;28.40;91.30;;;;;;5040699;28;20048;-77
2022/08/12 08:08:21;;;;;;;4.00;2.30;;;28.70;91.10;;;;;;5040354;28;20057;-77
2022/08/12 08:10:48;;;;;;;4.13;2.45;;;29.00;87.70;;;;;;5040061;28;20562;-77
2022/08/12 08:13:15;;;;;;;5.25;1.67;;;29.20;84.70;;;;;;5052916;28;20047;-75
2022/08/12 08:15:45;;;;;;;3.50;2.13;;;29.40;81.60;;;;;;5095909;28;20048;-74
2022/08/12 08:18:13;;;;;;;2.65;2.05;;;29.60;80.50;;;;;;5077516;28;20048;-77
2022/08/12 08:20:41;;;;;;;7.10;1.85;;;29.70;79.30;;;;;;5040132;28;20147;-77
2022/08/12 08:23:13;;;;;;;3.83;2.47;;;30.00;76.80;;;;;;5040757;28;20185;-78
2022/08/12 08:25:40;;;;;;;2.53;1.90;;;30.10;74.60;;;;;;5057118;28;20492;-78
2022/08/12 08:28:11;;;;;;;5.05;2.30;;;30.00;72.00;;;;;;5056902;28;20674;-77
2022/08/12 08:30:41;;;;;;;2.40;2.03;;;30.10;68.40;;;;;;5074187;28;20041;-77
2022/08/12 08:33:10;;;;;;;9.60;2.08;;;30.20;70.10;;;;;;5056621;28;20051;-76
2022/08/12 08:35:38;;;;;;;5.00;2.20;;;30.40;69.20;;;;;;5056707;28;20045;-78
2022/08/12 08:38:12;;;;;;;4.43;2.53;;;30.40;66.30;;;;;;5056175;28;20051;-76
2022/08/12 08:43:25;;;;;;;4.97;2.10;;;30.50;64.60;;;;;;5056361;28;20458;-77
2022/08/12 08:45:51;;;;;;;5.32;1.88;;;30.60;64.70;;;;;;5055762;28;20098;-76
2022/08/12 08:48:17;;;;;;;4.05;2.10;;;30.70;63.20;;;;;;5055962;28;20477;-76
2022/08/12 08:50:43;;;;;;;4.22;2.03;;;30.70;62.10;;;;;;5055520;28;20036;-77
2022/08/12 08:53:09;;;;;;;3.70;2.00;;;30.90;61.80;;;;;;5039468;28;20075;-76
2022/08/12 08:55:35;;;;;;;3.28;1.83;;;31.10;61.60;;;;;;5055839;28;20502;-77
2022/08/12 08:58:01;;;;;;;3.97;2.25;;;31.30;61.30;;;;;;5055997;28;20067;-77
2022/08/12 09:00:29;;;;;;;4.25;2.13;;;31.60;60.70;;;;;;5073436;28;20046;-77
2022/08/12 09:02:54;;;;;;;5.63;1.90;;;31.50;59.20;;;;;;5055955;28;20410;-76
2022/08/12 09:05:20;;;;;;;5.22;2.00;;;31.40;58.50;;;;;;5073708;28;20048;-77
2022/08/12 09:07:48;;;;;;;6.10;1.77;;;31.50;57.90;;;;;;5073352;28;20045;-77
2022/08/12 09:10:19;;;;;;;4.80;1.98;;;31.60;57.40;;;;;;5055448;28;20084;-77
2022/08/12 09:15:35;;;;;;;6.00;3.42;;;32.00;56.00;;;;;;5055800;28;20494;-77
2022/08/12 09:18:04;;;;;;;8.23;2.25;;;32.00;56.10;;;;;;5073622;28;20048;-77
2022/08/12 09:20:32;;;;;;;4.22;2.05;;;32.10;55.50;;;;;;5055013;28;20119;-77
2022/08/12 09:23:04;;;;;;;4.60;2.25;;;32.00;54.50;;;;;;5055295;28;20032;-77
2022/08/12 09:25:30;;;;;;;3.45;1.90;;;31.90;54.80;;;;;;5055294;28;20483;-77
2022/08/12 09:27:57;;;;;;;4.03;1.85;;;32.10;55.20;;;;;;5038566;28;20495;-76
2022/08/12 09:30:24;;;;;;;6.85;2.38;;;32.20;54.40;;;;;;5055018;28;20036;-76
2022/08/12 09:32:50;;;;;;;6.97;2.30;;;32.30;53.30;;;;;;5055485;28;20045;-76
2022/08/12 09:35:19;;;;;;;3.90;2.72;;;32.20;52.60;;;;;;5055279;28;20044;-77
2022/08/12 09:37:46;;;;;;;2.97;2.10;;;32.20;52.40;;;;;;5055129;28;20048;-78
2022/08/12 09:40:13;;;;;;;3.92;1.70;;;32.20;52.60;;;;;;5038266;28;20048;-77
2022/08/12 09:45:23;;;;;;;4.72;3.28;;;32.50;52.60;;;;;;5054903;28;20059;-77
2022/08/12 09:47:50;;;;;;;4.15;1.90;;;32.80;52.10;;;;;;5055170;28;20036;-78
2022/08/12 09:50:18;;;;;;;8.65;2.30;;;33.00;51.80;;;;;;5054563;28;20043;-77
2022/08/12 09:52:45;;;;;;;6.93;2.30;;;33.30;52.20;;;;;;5054866;28;20036;-77
2022/08/12 09:55:12;;;;;;;3.97;2.15;;;33.40;51.50;;;;;;5055066;28;20113;-77
2022/08/12 09:57:37;;;;;;;3.40;1.92;;;33.40;50.80;;;;;;5054607;28;20060;-77
2022/08/12 10:00:15;;;;;;;5.15;2.58;;;33.50;50.20;;;;;;5054538;28;20048;-77
2022/08/12 10:03:06;;;;;;;2.70;1.92;;;33.40;46.80;;;;;;5072684;28;20049;-76
2022/08/12 10:05:35;;;;;;;3.15;1.92;;;33.10;47.20;;;;;;5054546;28;20051;-76
2022/08/12 10:08:03;;;;;;;7.15;2.08;;;32.80;48.10;;;;;;5038342;28;20063;-78
2022/08/12 10:10:29;;;;;;;4.55;2.20;;;32.80;48.10;;;;;;5053940;28;20040;-77
2022/08/12 10:15:45;;;;;;;5.20;2.10;;;32.80;48.00;;;;;;5054533;28;20087;-76
2022/08/12 10:18:13;;;;;;;7.07;2.20;;;32.90;48.20;;;;;;5054360;28;20087;-76
2022/08/12 10:20:39;;;;;;;3.55;2.20;;;33.10;47.90;;;;;;5053242;28;20045;-77
2022/08/12 10:23:06;;;;;;;3.20;1.90;;;33.20;47.50;;;;;;5072570;28;20049;-76
2022/08/12 10:31:02;;;;;;;3.97;2.20;;;33.10;46.80;;;;;;5053672;28;20131;-77
2022/08/12 10:33:29;;;;;;;6.43;2.10;;;33.10;45.50;;;;;;5037265;28;20119;-76
2022/08/12 10:35:57;;;;;;;4.70;1.80;;;32.80;45.10;;;;;;5054130;28;20048;-77
2022/08/12 10:38:23;;;;;;;1.80;1.70;;;32.70;44.90;;;;;;5072109;28;20098;-77
2022/08/12 10:43:41;;;;;;;7.85;2.78;;;32.30;44.40;;;;;;5053724;28;20044;-77
2022/08/12 10:46:16;;;;;;;2.10;1.70;;;32.10;45.00;;;;;;5036974;28;20040;-76
2022/08/12 10:48:47;;;;;;;3.88;2.13;;;32.20;44.90;;;;;;5053821;28;20051;-77
2022/08/12 10:51:17;;;;;;;6.20;1.90;;;32.30;45.30;;;;;;5053352;28;20043;-77
2022/08/12 10:53:45;;;;;;;6.85;2.08;;;32.40;44.90;;;;;;5054017;28;20442;-76
2022/08/12 10:56:11;;;;;;;5.47;2.25;;;32.60;44.50;;;;;;5053627;28;20051;-77
2022/08/12 10:58:37;;;;;;;2.88;1.77;;;32.60;44.80;;;;;;5053732;28;20052;-76
2022/08/12 11:01:05;;;;;;;3.28;1.75;;;32.60;44.50;;;;;;5053167;28;20072;-77
2022/08/12 11:03:35;;;;;;;8.75;2.03;;;32.60;45.30;;;;;;5071510;28;20044;-77
2022/08/12 11:06:01;;;;;;;7.28;1.80;;;32.60;45.10;;;;;;5053451;28;20063;-77
2022/08/12 11:08:29;;;;;;;5.57;1.80;;;32.70;44.60;;;;;;5053355;28;20037;-77
2022/08/12 11:10:55;;;;;;;4.15;1.98;;;32.80;44.50;;;;;;5052909;28;20055;-76
2022/08/12 11:13:20;;;;;;;4.53;2.03;;;32.70;44.50;;;;;;5037027;28;20124;-75
2022/08/12 11:15:46;;;;;;;5.85;1.90;;;32.60;44.40;;;;;;5071422;28;20071;-76
2022/08/12 11:18:12;;;;;;;2.75;2.10;;;32.60;45.40;;;;;;5053430;28;20044;-76
2022/08/12 11:20:38;;;;;;;3.55;1.60;;;32.60;45.20;;;;;;5036322;28;20044;-76
2022/08/12 11:23:04;;;;;;;2.22;1.50;;;32.60;44.30;;;;;;5053176;28;20055;-76
2022/08/12 11:25:30;;;;;;;3.33;1.63;;;32.70;44.40;;;;;;5036508;28;20041;-76
2022/08/12 11:27:55;;;;;;;6.95;2.20;;;32.80;45.20;;;;;;5053756;28;20033;-76
2022/08/12 11:30:21;;;;;;;2.72;2.00;;;32.80;44.00;;;;;;5052839;28;20475;-77
2022/08/12 11:32:47;;;;;;;5.22;2.00;;;32.90;43.20;;;;;;5052506;28;20036;-76
2022/08/12 11:35:12;;;;;;;2.60;1.77;;;33.00;43.00;;;;;;5053419;28;20067;-77
2022/08/12 11:37:39;;;;;;;7.43;2.00;;;33.00;42.10;;;;;;5053072;28;20052;-76
2022/08/12 11:40:06;;;;;;;2.88;1.80;;;33.10;42.00;;;;;;5036207;28;20043;-76
2022/08/12 11:42:32;;;;;;;3.05;1.83;;;33.10;42.40;;;;;;5071237;28;20080;-76
2022/08/12 11:44:57;;;;;;;4.38;2.20;;;33.10;42.50;;;;;;5053188;28;20083;-77
2022/08/12 11:47:23;;;;;;;7.05;1.73;;;33.10;43.50;;;;;;5053188;28;20041;-77
2022/08/12 11:49:50;;;;;;;3.08;1.92;;;33.20;42.80;;;;;;5070637;28;20066;-76
2022/08/12 11:52:16;;;;;;;14.10;2.30;;;33.40;42.40;;;;;;5052805;28;20085;-76
2022/08/12 11:54:41;;;;;;;4.28;1.92;;;33.50;42.10;;;;;;5036691;28;20491;-77
2022/08/12 11:57:07;;;;;;;4.35;2.20;;;33.50;43.00;;;;;;5053142;28;20036;-77
2022/08/12 11:59:33;;;;;;;4.55;2.53;;;33.50;43.90;;;;;;5070701;28;20036;-77
2022/08/12 12:01:58;;;;;;;5.28;2.25;;;33.40;43.00;;;;;;5053033;28;20044;-77
2022/08/12 12:04:24;;;;;;;8.52;2.75;;;33.10;42.90;;;;;;5053243;28;20193;-78
2022/08/12 12:06:49;;;;;;;2.65;2.10;;;33.00;43.80;;;;;;5036213;28;20122;-77
2022/08/12 12:09:15;;;;;;;2.90;2.30;;;33.00;43.70;;;;;;5052847;28;20040;-76
2022/08/12 12:11:42;;;;;;;4.75;2.15;;;32.90;42.70;;;;;;5070745;28;20037;-77
2022/08/12 12:14:11;;;;;;;2.70;2.45;;;32.80;43.10;;;;;;5052919;28;20052;-77
2022/08/12 12:16:37;;;;;;;5.00;2.10;;;32.80;43.00;;;;;;5070839;28;20497;-76
2022/08/12 12:19:04;;;;;;;3.90;1.65;;;32.90;43.00;;;;;;5052869;28;20040;-76
2022/08/12 12:21:30;;;;;;;3.88;1.83;;;33.00;42.50;;;;;;5052278;28;20399;-76
2022/08/12 12:23:55;;;;;;;3.63;2.22;;;33.10;41.80;;;;;;5052558;28;20038;-77
2022/08/12 12:26:21;;;;;;;3.40;1.60;;;33.10;42.10;;;;;;5070690;28;20047;-76
2022/08/12 12:28:47;;;;;;;4.07;1.90;;;33.20;42.20;;;;;;5036128;28;20041;-77
2022/08/12 12:31:12;;;;;;;3.42;2.35;;;33.30;41.80;;;;;;5052327;28;20048;-78
2022/08/12 12:33:39;;;;;;;5.53;1.85;;;33.40;41.40;;;;;;5052900;28;20036;-77
2022/08/12 12:36:07;;;;;;;6.38;1.80;;;33.40;41.40;;;;;;5052476;28;20544;-77
2022/08/12 12:38:32;;;;;;;3.60;1.73;;;33.30;40.80;;;;;;5070507;28;20072;-77
2022/08/12 12:40:59;;;;;;;3.90;1.80;;;33.30;41.70;;;;;;5035994;28;20083;-77
2022/08/12 12:43:24;;;;;;;9.75;2.38;;;33.30;41.60;;;;;;5072509;28;20040;-77
2022/08/12 12:45:50;;;;;;;3.22;1.80;;;33.20;41.10;;;;;;5039268;28;20040;-78
2022/08/12 12:48:18;;;;;;;4.35;1.60;;;33.00;41.30;;;;;;5055985;28;20045;-76
2022/08/12 12:53:35;;;;;;;3.83;1.77;;;33.10;41.60;;;;;;5056134;28;20047;-77
2022/08/12 12:56:01;;;;;;;5.53;2.05;;;33.20;41.10;;;;;;5055979;28;20071;-76
2022/08/12 12:58:28;;;;;;;2.40;1.83;;;33.30;41.30;;;;;;5073727;28;20036;-76
2022/08/12 13:00:58;;;;;;;2.63;2.10;;;33.30;41.00;;;;;;5055625;28;20056;-78
2022/08/12 13:03:24;;;;;;;3.63;2.05;;;33.40;41.60;;;;;;5056016;28;20400;-77
2022/08/12 13:05:51;;;;;;;3.40;1.92;;;33.40;42.00;;;;;;5055540;28;20041;-77
2022/08/12 13:08:24;;;;;;;3.78;1.65;;;33.30;41.80;;;;;;5039136;28;20078;-77
2022/08/12 13:10:51;;;;;;;6.15;2.38;;;33.40;42.20;;;;;;5038528;28;20447;-77
2022/08/12 13:13:18;;;;;;;4.00;1.98;;;33.50;41.90;;;;;;5055669;28;20123;-77
2022/08/12 13:15:48;;;;;;;2.63;2.00;;;33.60;41.70;;;;;;5055800;28;20067;-78
2022/08/12 13:18:17;;;;;;;2.55;1.85;;;33.60;40.70;;;;;;5055554;28;20544;-77
2022/08/12 13:20:46;;;;;;;4.22;2.10;;;33.60;41.00;;;;;;5055323;28;20048;-77
2022/08/12 13:23:15;;;;;;;3.80;2.00;;;33.60;41.60;;;;;;5041167;28;20547;-76
2022/08/12 13:25:40;;;;;;;3.38;2.20;;;33.60;41.00;;;;;;5074831;28;20099;-76
2022/08/12 13:28:10;;;;;;;5.15;2.30;;;33.50;41.20;;;;;;5074913;28;20047;-76
2022/08/12 13:30:35;;;;;;;4.47;2.22;;;33.40;41.40;;;;;;5053741;28;20100;-78
2022/08/12 13:33:01;;;;;;;4.18;2.15;;;33.40;41.10;;;;;;5057043;28;20072;-79
2022/08/12 13:35:29;;;;;;;4.43;2.42;;;33.30;41.00;;;;;;5057118;28;20087;-78
2022/08/12 13:37:57;;;;;;;3.70;2.20;;;33.40;41.20;;;;;;5055711;28;20044;-79
2022/08/12 13:40:24;;;;;;;2.97;2.33;;;33.30;40.70;;;;;;5054879;28;20054;-79
2022/08/12 13:42:56;;;;;;;6.57;2.22;;;33.30;40.70;;;;;;5038439;28;20072;-79
2022/08/12 13:45:22;;;;;;;4.18;1.98;;;33.20;40.80;;;;;;5055006;28;20046;-79
2022/08/12 13:47:55;;;;;;;6.35;2.47;;;33.20;41.10;;;;;;5054909;28;20487;-79
2022/08/12 13:50:28;;;;;;;5.05;2.40;;;33.20;41.20;;;;;;5054847;28;20048;-79
2022/08/12 13:52:54;;;;;;;4.45;2.15;;;33.20;41.40;;;;;;5038649;28;20050;-79
2022/08/12 13:55:24;;;;;;;2.35;2.08;;;33.10;40.90;;;;;;5037059;28;20036;-79
2022/08/12 13:57:51;;;;;;;3.53;2.38;;;33.00;40.80;;;;;;5038253;28;20036;-79
2022/08/12 14:00:16;;;;;;;4.55;2.30;;;33.10;41.70;;;;;;5054468;28;20124;-79
2022/08/12 14:02:42;;;;;;;3.53;2.17;;;33.00;41.40;;;;;;5054576;28;20123;-79
2022/08/12 14:05:08;;;;;;;3.80;2.28;;;33.00;41.60;;;;;;5038101;28;20379;-79
2022/08/12 14:07:56;;;;;;;3.80;2.10;;;32.90;40.30;;;;;;5072415;28;20036;-80
2022/08/12 14:10:42;;;;;;;3.83;2.75;;;32.90;40.80;;;;;;5054203;28;20495;-79
2022/08/12 14:13:20;;;;;;;6.15;2.70;;;33.00;41.30;;;;;;5038007;28;20082;-79
2022/08/12 14:15:49;;;;;;;4.13;2.47;;;32.90;40.50;;;;;;5072447;28;20041;-80
2022/08/12 14:18:19;;;;;;;3.60;2.20;;;32.80;40.70;;;;;;5054444;28;20048;-79
2022/08/12 14:20:47;;;;;;;6.07;2.67;;;32.70;41.30;;;;;;5054575;28;20094;-79
2022/08/12 14:23:14;;;;;;;7.50;2.72;;;32.70;41.20;;;;;;5054360;28;20538;-80
2022/08/12 14:25:42;;;;;;;7.15;2.47;;;32.70;41.70;;;;;;5055104;28;20416;-80
2022/08/12 14:28:15;;;;;;;6.60;2.42;;;32.70;41.50;;;;;;5037897;28;20041;-79
2022/08/12 14:31:01;;;;;;;5.90;2.60;;;32.80;40.60;;;;;;5053996;28;20044;-79
2022/08/12 14:33:33;;;;;;;5.10;2.25;;;32.80;41.10;;;;;;5054109;28;20056;-80
2022/08/12 14:36:10;;;;;;;5.43;2.20;;;32.80;41.30;;;;;;5054612;28;20127;-80
2022/08/12 14:38:42;;;;;;;6.70;2.60;;;32.90;40.40;;;;;;5054240;28;20575;-78
2022/08/12 14:41:20;;;;;;;3.70;2.42;;;32.80;40.70;;;;;;5053317;28;20052;-80
2022/08/12 14:43:47;;;;;;;4.10;2.22;;;32.70;41.20;;;;;;5053948;28;20098;-79
2022/08/12 14:46:15;;;;;;;5.97;2.85;;;32.60;41.00;;;;;;5053784;28;20073;-79
2022/08/12 14:48:45;;;;;;;4.25;2.85;;;32.60;40.40;;;;;;5053761;28;20044;-79
2022/08/12 14:51:18;;;;;;;4.20;3.42;;;32.50;40.10;;;;;;5053529;28;20051;-80